Stanley, NM (87056)

07:24 MST le 18 décembre 2014 (GMT -0700)
Rural Stanley | Change Station
CLOSE
Current Station
Stations météorologiques personnelles
Location: New Mexico, NM
Altitude: 6414 ft
Stations météo à proximité

Alt. 6414 ft 35.13 °N, 106.11 °W | Updated 3 seconds ago

Ciel dégagé
Ciel dégagé
27.9 ° F
Paraît 19 ° F
N
10.1
Vent Variable Vent de Ouest
Gusts 10.1 mph

Aujourd'hui
Haut(e) -- | Bas -- ° F
--% Risque de précip.
Hier
Haut(e) -- | Bas -- ° F
Precip. -- pouce
7:06 AM 4:54 PM
Lune descendante, 14% visible
Pression 30.11 pouce
Visibilité 10.0 Miles terrestres
Nuages Ciel dégagé
Refroidissement éolien 19 ° F
Point de rosée 24 ° F
Humidité 84%
Précipitations 0.00 pouce
Profondeur de la couche neigeuse Non disponible.
UV 0.0 sur 12
Pollen 2.70 sur 12
Qualité de l'air Non disponible.
Flu Activity Non disponible.
METAR K0E0 181415Z AUTO 27011KT 10SM CLR M02/M05 A3011 RMK AO2 T10251047

More Conditions Fewer Conditions

Pression 30.11 pouce
Visibilité 10.0 Miles terrestres
Nuages Ciel dégagé
Refroidissement éolien 19 ° F
Point de rosée 24 ° F
Humidité 84%
Précipitations 0.00 pouce
Profondeur de la couche neigeuse Non disponible.
UV 0.0 sur 12
Pollen 2.70 sur 12
Qualité de l'air Non disponible.
Flu Activity Non disponible.
METAR K0E0 181415Z AUTO 27011KT 10SM CLR M02/M05 A3011 RMK AO2 T10251047

More Conditions Fewer Conditions

10-Day Weather Forecast

Almanac

Astronomie

Dec. 18, 2014 Lever Coucher
Temps réel
Crépuscule civil
Crépuscule nautique
Crépuscule astronomique
Lune
Durée de lumière visible
Longueur du jour
Tomorrow will be .
, % of the Moon is Illuminated

Extrêmes aujourd'hui

State Highs State Lows

Community

WunderPhotos

Upload Photos

1,778,929 Photos téléchargées !

WunderBlogs® & News

Nearby

Qualité de l'air

  Qualité de l'air Indice de la qualité de l'air Polluant
Not available.

Épaisseur de neige

Station Depth Altitude

Activité sismique

Ville Distance Mag. Time & Date
Minimum magnitude displayed is 2.5.

Températures des eaux côtières

Lieu Température

Stations météo à proximité